Station History

Weather Underground - logo

Station Historical Data
Daily Summary for February 12, 2018 Units:  Metric    English   Both
« Previous Day
Next Day »
Daily Weekly Monthly Yearly Custom
  High: Low: Average:
Temperature: 14.1 °C 2.4 °C 8.7 °C
Dew Point: 6.8 °C 0.9 °C 4.5 °C
Humidity: 91 % 56 % 76 %
Wind Speed: 11.1 km/h 0 km/h 1.3 km/h
Wind Gust: 6.4 km/h - -
Wind:- - SW
Pressure: 1015.8 hPa 1010.4 hPa -
Precipitation: 0 mm    
Historical Graphs
 
 
Tabular Data for February 12, 2018
Time Temperature Dew Point Pressure Wind Wind Speed Wind Gust Humidity Rainfall Rate (Hourly)
00:00 7.3 °C 4.1 °C 1011.1 hPa Calm     80 % 0 mm
00:05 7.2 °C 3.9 °C 1011.1 hPa Calm     80 % 0 mm
00:10 7.1 °C 4 °C 1011.1 hPa Calm     81 % 0 mm
00:15 6.9 °C 3.9 °C 1011.1 hPa Calm     81 % 0 mm
00:20 6.9 °C 3.8 °C 1011.1 hPa Calm     81 % 0 mm
00:25 6.8 °C 4 °C 1011.4 hPa Calm     82 % 0 mm
00:30 6.8 °C 3.9 °C 1011.4 hPa Calm     82 % 0 mm
00:35 6.7 °C 3.9 °C 1011.4 hPa Calm     82 % 0 mm
00:40 6.6 °C 3.9 °C 1011.4 hPa Calm     83 % 0 mm
00:45 6.4 °C 3.8 °C 1011.7 hPa Calm     83 % 0 mm
00:50 6.3 °C 3.7 °C 1011.7 hPa SE 1.6 km/h   83 % 0 mm
00:55 6.3 °C 3.8 °C 1011.7 hPa SE 1.9 km/h   84 % 0 mm
01:00 6.2 °C 3.7 °C 1011.7 hPa Calm     84 % 0 mm
01:05 6.2 °C 3.7 °C 1011.7 hPa Calm     84 % 0 mm
01:10 6.1 °C 3.6 °C 1011.7 hPa Calm     84 % 0 mm
01:15 6 °C 3.5 °C 1011.7 hPa Calm     84 % 0 mm
01:20 5.9 °C 3.6 °C 1011.7 hPa Calm   0.2 km/h 85 % 0 mm
01:25 5.8 °C 3.5 °C 1011.7 hPa Calm     85 % 0 mm
01:30 5.7 °C 3.3 °C 1011.7 hPa Calm     85 % 0 mm
01:35 5.6 °C 3.2 °C 1011.7 hPa Calm     85 % 0 mm
01:40 5.4 °C 3.2 °C 1011.7 hPa Calm     86 % 0 mm
01:45 5.3 °C 3.2 °C 1011.7 hPa Calm     86 % 0 mm
01:50 5.2 °C 3.1 °C 1011.7 hPa Calm     86 % 0 mm
01:55 5.1 °C 3.1 °C 1011.7 hPa Calm     87 % 0 mm
02:00 5.1 °C 3.1 °C 1011.7 hPa Calm     87 % 0 mm
02:05 5.1 °C 3.1 °C 1011.7 hPa SE 11.1 km/h   87 % 0 mm
02:10 5.2 °C 3.2 °C 1011.4 hPa Calm     87 % 0 mm
02:15 5.2 °C 3.2 °C 1011.4 hPa Calm     87 % 0 mm
02:20 5.2 °C 3.2 °C 1011.4 hPa Calm     87 % 0 mm
02:25 5.2 °C 3.2 °C 1011.4 hPa Calm     87 % 0 mm
02:30 5.2 °C 3.1 °C 1011.4 hPa Calm     86 % 0 mm
02:35 5.2 °C 3.2 °C 1011.4 hPa Calm     87 % 0 mm
02:40 5.2 °C 3.2 °C 1011.1 hPa Calm     87 % 0 mm
02:45 5.2 °C 3.2 °C 1011.1 hPa Calm     87 % 0 mm
02:50 5.1 °C 3.1 °C 1011.1 hPa Calm     87 % 0 mm
02:55 5.1 °C 3.1 °C 1011.1 hPa Calm     87 % 0 mm
03:00 5.1 °C 3.1 °C 1011.1 hPa Calm     87 % 0 mm
03:05 4.9 °C 2.9 °C 1011.1 hPa Calm     87 % 0 mm
03:10 4.8 °C 2.8 °C 1010.7 hPa Calm     87 % 0 mm
03:14 4.7 °C 2.9 °C 1010.7 hPa Calm     88 % 0 mm
03:19 4.6 °C 2.8 °C 1010.7 hPa Calm     88 % 0 mm
03:24 4.4 °C 2.6 °C 1010.7 hPa Calm     88 % 0 mm
03:29 4.3 °C 2.3 °C 1010.7 hPa Calm     87 % 0 mm
03:34 4.2 °C 2.5 °C 1010.7 hPa SE 1.9 km/h 1.9 km/h 89 % 0 mm
03:39 4.3 °C 2.6 °C 1010.7 hPa Calm     89 % 0 mm
03:44 4.3 °C 2.5 °C 1010.7 hPa Calm     88 % 0 mm
03:49 4.2 °C 2.4 °C 1010.7 hPa Calm     88 % 0 mm
03:54 4.1 °C 2.3 °C 1010.7 hPa Calm     88 % 0 mm
03:59 4.3 °C 2.7 °C 1010.7 hPa Calm     89 % 0 mm
04:04 4.5 °C 2.8 °C 1010.4 hPa Calm     89 % 0 mm
04:09 4.4 °C 2.6 °C 1010.4 hPa Calm     88 % 0 mm
04:14 4.3 °C 2.4 °C 1010.4 hPa Calm     88 % 0 mm
04:19 4.2 °C 2.3 °C 1010.4 hPa Calm     88 % 0 mm
04:24 4.1 °C 2.4 °C 1010.4 hPa Calm     89 % 0 mm
04:29 3.8 °C 2 °C 1010.4 hPa Calm     88 % 0 mm
04:34 3.8 °C 2.1 °C 1010.4 hPa Calm     89 % 0 mm
04:39 3.7 °C 1.9 °C 1010.4 hPa Calm     88 % 0 mm
04:44 3.8 °C 2.2 °C 1010.4 hPa Calm     89 % 0 mm
04:49 3.8 °C 2.2 °C 1010.4 hPa Calm     89 % 0 mm
04:55 3.8 °C 2.2 °C 1010.4 hPa Calm     89 % 0 mm
05:00 3.8 °C 2.2 °C 1010.4 hPa Calm     89 % 0 mm
05:05 3.5 °C 1.7 °C 1010.4 hPa Calm     88 % 0 mm
05:10 3.3 °C 1.7 °C 1010.4 hPa Calm     89 % 0 mm
05:15 3.2 °C 1.6 °C 1010.7 hPa Calm     89 % 0 mm
05:20 3.2 °C 1.7 °C 1010.7 hPa Calm     90 % 0 mm
05:25 3.1 °C 1.6 °C 1010.7 hPa Calm     90 % 0 mm
05:30 2.9 °C 1.3 °C 1010.7 hPa Calm     89 % 0 mm
05:35 2.7 °C 1.1 °C 1010.7 hPa Calm     89 % 0 mm
05:40 2.6 °C 1.1 °C 1010.7 hPa Calm     90 % 0 mm
05:45 2.4 °C 0.9 °C 1011.1 hPa Calm     90 % 0 mm
05:50 2.6 °C 1.3 °C 1011.1 hPa Calm     91 % 0 mm
05:55 2.7 °C 1.4 °C 1011.1 hPa Calm     91 % 0 mm
06:00 2.9 °C 1.6 °C 1011.4 hPa Calm     91 % 0 mm
06:05 2.9 °C 1.6 °C 1011.4 hPa Calm     91 % 0 mm
06:10 3.1 °C 1.8 °C 1011.4 hPa Calm     91 % 0 mm
06:15 3.4 °C 2.1 °C 1011.4 hPa Calm     91 % 0 mm
06:20 3.6 °C 2.3 °C 1011.7 hPa Calm     91 % 0 mm
06:25 3.8 °C 2.5 °C 1011.7 hPa Calm   0.2 km/h 91 % 0 mm
06:30 4.1 °C 2.8 °C 1011.7 hPa SE 1.9 km/h   91 % 0 mm
06:35 4.4 °C 2.9 °C 1011.7 hPa SE 1.9 km/h   90 % 0 mm
06:40 4.6 °C 3.1 °C 1011.7 hPa Calm     90 % 0 mm
06:45 4.8 °C 3.3 °C 1011.7 hPa SE 1.9 km/h 1.9 km/h 90 % 0 mm
06:50 4.9 °C 3.4 °C 1011.7 hPa Calm     90 % 0 mm
06:55 5.1 °C 3.6 °C 1011.7 hPa SE 1.9 km/h   90 % 0 mm
07:00 5.2 °C 3.7 °C 1011.7 hPa Calm     90 % 0 mm
07:05 5.3 °C 3.8 °C 1011.7 hPa SE 1.9 km/h   90 % 0 mm
07:10 5.4 °C 3.9 °C 1012.1 hPa SE 1.9 km/h   90 % 0 mm
07:15 5.5 °C 3.8 °C 1012.1 hPa Calm     89 % 0 mm
07:20 5.6 °C 3.9 °C 1012.1 hPa Calm     89 % 0 mm
07:25 5.7 °C 4.1 °C 1012.1 hPa SE 4.8 km/h 4.8 km/h 89 % 0 mm
07:30 5.8 °C 4.2 °C 1011.7 hPa SE 1.9 km/h 1.9 km/h 89 % 0 mm
07:35 5.9 °C 4.3 °C 1011.7 hPa SE 1.9 km/h 1.9 km/h 89 % 0 mm
07:40 6.1 °C 4.4 °C 1011.7 hPa SE 1.9 km/h 1.9 km/h 89 % 0 mm
07:45 6.2 °C 4.5 °C 1011.7 hPa Calm     89 % 0 mm
07:50 6.4 °C 4.6 °C 1011.7 hPa SE 1.9 km/h 1.9 km/h 88 % 0 mm
07:55 6.6 °C 4.7 °C 1011.7 hPa SE 1.9 km/h   88 % 0 mm
08:00 6.7 °C 4.9 °C 1012.1 hPa Calm     88 % 0 mm
08:05 6.9 °C 5.1 °C 1011.7 hPa Calm     88 % 0 mm
08:10 7.2 °C 5.2 °C 1012.1 hPa SE 1.9 km/h   87 % 0 mm
08:15 7.4 °C 5.4 °C 1012.1 hPa Calm     87 % 0 mm
08:20 7.6 °C 5.4 °C 1012.1 hPa SE 1.9 km/h 1.9 km/h 86 % 0 mm
08:25 7.8 °C 5.6 °C 1012.1 hPa SE 1.9 km/h   86 % 0 mm
08:30 8 °C 5.6 °C 1012.1 hPa SE 1.9 km/h 1.9 km/h 85 % 0 mm
08:35 8.2 °C 5.7 °C 1012.1 hPa SE 3.2 km/h 3.2 km/h 84 % 0 mm
08:41 8.4 °C 5.7 °C 1012.1 hPa SE 1.6 km/h 1.6 km/h 83 % 0 mm
08:46 8.6 °C 5.5 °C 1012.1 hPa ESE 5.6 km/h 5.6 km/h 81 % 0 mm
08:51 8.8 °C 5.5 °C 1012.1 hPa ESE 1.6 km/h   80 % 0 mm
08:56 9 °C 5.7 °C 1012.1 hPa Calm     80 % 0 mm
09:01 9.1 °C 5.5 °C 1012.1 hPa ESE 1.9 km/h   78 % 0 mm
09:06 9.2 °C 5.6 °C 1012.4 hPa ESE 1.9 km/h 1.9 km/h 78 % 0 mm
09:11 9.4 °C 5.6 °C 1012.4 hPa ESE 1.9 km/h 1.9 km/h 77 % 0 mm
09:16 9.4 °C 5.4 °C 1012.4 hPa ESE 1.9 km/h 1.9 km/h 76 % 0 mm
09:21 9.4 °C 5.4 °C 1012.4 hPa ESE 1.9 km/h 1.9 km/h 76 % 0 mm
09:26 9.5 °C 5.3 °C 1012.4 hPa Calm     75 % 0 mm
09:31 9.5 °C 5.5 °C 1012.4 hPa Calm     76 % 0 mm
09:36 9.6 °C 5.6 °C 1012.4 hPa Calm     76 % 0 mm
09:41 9.6 °C 5.3 °C 1012.4 hPa ESE 1.9 km/h 1.9 km/h 75 % 0 mm
09:46 9.6 °C 5.6 °C 1012.4 hPa Calm     76 % 0 mm
09:51 9.6 °C 5.6 °C 1012.4 hPa Calm     76 % 0 mm
09:56 9.7 °C 5.6 °C 1012.4 hPa Calm     76 % 0 mm
10:01 9.7 °C 5.5 °C 1012.8 hPa ESE 1.9 km/h 1.9 km/h 75 % 0 mm
10:06 9.7 °C 5.5 °C 1012.8 hPa ESE 1.9 km/h 1.9 km/h 75 % 0 mm
10:11 9.8 °C 5.6 °C 1012.8 hPa ESE 1.9 km/h   75 % 0 mm
10:16 9.8 °C 5.6 °C 1012.8 hPa ESE 1.9 km/h   75 % 0 mm
10:21 9.9 °C 5.7 °C 1012.8 hPa ESE 1.9 km/h   75 % 0 mm
10:26 9.9 °C 5.5 °C 1012.8 hPa Calm     74 % 0 mm
10:31 10 °C 5.8 °C 1012.8 hPa Calm     75 % 0 mm
10:36 10.1 °C 5.7 °C 1012.8 hPa Calm     74 % 0 mm
10:41 10.3 °C 5.8 °C 1012.8 hPa Calm     74 % 0 mm
10:46 10.4 °C 5.8 °C 1012.8 hPa East 1.9 km/h   73 % 0 mm
10:51 10.6 °C 5.9 °C 1012.4 hPa Calm     73 % 0 mm
10:56 10.7 °C 5.7 °C 1012.4 hPa Calm     71 % 0 mm
11:01 10.8 °C 6 °C 1012.4 hPa Calm     72 % 0 mm
11:06 11.1 °C 5.8 °C 1012.4 hPa Calm     70 % 0 mm
11:11 11.1 °C 5.8 °C 1012.4 hPa Calm     70 % 0 mm
11:16 11.4 °C 6.1 °C 1012.4 hPa SSE 1.9 km/h   70 % 0 mm
11:21 11.6 °C 6.1 °C 1012.4 hPa Calm     69 % 0 mm
11:26 11.7 °C 6 °C 1012.4 hPa South 3.7 km/h   68 % 0 mm
11:31 11.8 °C 5.9 °C 1012.4 hPa Calm   0.3 km/h 67 % 0 mm
11:36 12.1 °C 6.3 °C 1012.4 hPa NW 1.9 km/h 1.9 km/h 68 % 0 mm
11:41 12.3 °C 5.9 °C 1012.1 hPa WNW 3.7 km/h 3.7 km/h 65 % 0 mm
11:46 12.6 °C 6 °C 1012.1 hPa NW 3.7 km/h 3.7 km/h 64 % 0 mm
11:51 13.1 °C 6.8 °C 1012.1 hPa South 3.7 km/h 3.7 km/h 66 % 0 mm
11:56 13.3 °C 5.9 °C 1011.7 hPa Calm     61 % 0 mm
12:01 13.3 °C 5.9 °C 1011.7 hPa NW 3.7 km/h 3.7 km/h 61 % 0 mm
12:06 13.1 °C 5.7 °C 1011.7 hPa Calm     61 % 0 mm
12:11 13.4 °C 6.8 °C 1011.7 hPa Calm     64 % 0 mm
12:16 13.9 °C 6.7 °C 1011.7 hPa Calm     62 % 0 mm
12:21 14.1 °C 6.2 °C 1011.7 hPa NW 3.7 km/h 3.7 km/h 59 % 0 mm
12:26 13.8 °C 6.7 °C 1011.4 hPa SE 1.9 km/h 1.9 km/h 62 % 0 mm
12:30 13.8 °C 5.7 °C 1011.4 hPa East 4.8 km/h 4.8 km/h 58 % 0 mm
12:35 13.8 °C 5.4 °C 1011.4 hPa ENE 5.6 km/h 5.6 km/h 57 % 0 mm
12:40 13.7 °C 5.8 °C 1011.4 hPa NNE 1.9 km/h 1.9 km/h 59 % 0 mm
12:45 13.6 °C 5.7 °C 1011.4 hPa WNW 5.6 km/h 5.6 km/h 59 % 0 mm
12:50 13.4 °C 5.6 °C 1011.1 hPa NW 5.6 km/h 5.6 km/h 59 % 0 mm
12:55 13.4 °C 5.6 °C 1011.1 hPa West 1.9 km/h   59 % 0 mm
13:00 13.7 °C 5.6 °C 1011.1 hPa WNW 3.7 km/h 3.7 km/h 58 % 0 mm
13:05 13.8 °C 5.2 °C 1011.1 hPa WNW 5.6 km/h 5.6 km/h 56 % 0 mm
13:10 13.7 °C 5.3 °C 1011.1 hPa East 1.9 km/h 1.9 km/h 57 % 0 mm
13:15 13.9 °C 5.5 °C 1011.1 hPa NW 5.6 km/h 5.6 km/h 57 % 0 mm
13:21 14.1 °C 5.4 °C 1011.1 hPa NW 5.6 km/h 5.6 km/h 56 % 0 mm
13:26 14.1 °C 5.4 °C 1011.1 hPa WNW 5.6 km/h 5.6 km/h 56 % 0 mm
13:31 13.7 °C 5.6 °C 1011.1 hPa NW 5.6 km/h 5.6 km/h 58 % 0 mm
13:36 13.4 °C 5.3 °C 1011.1 hPa NW 3.2 km/h 3.2 km/h 58 % 0 mm
13:41 13.6 °C 5.4 °C 1011.1 hPa NW 6.4 km/h 6.4 km/h 58 % 0 mm
13:46 13.4 °C 5.3 °C 1011.1 hPa NW 3.7 km/h 3.7 km/h 58 % 0 mm
13:51 13.3 °C 5.4 °C 1011.1 hPa NW 1.9 km/h   59 % 0 mm
13:56 13.4 °C 5.6 °C 1011.1 hPa NW 5.6 km/h 5.6 km/h 59 % 0 mm
14:01 13.6 °C 5.7 °C 1011.1 hPa NE 3.7 km/h 3.7 km/h 59 % 0 mm
14:06 13.5 °C 5.4 °C 1011.1 hPa Calm     58 % 0 mm
14:11 13.5 °C 5.9 °C 1011.1 hPa NW 1.9 km/h 1.9 km/h 60 % 0 mm
14:16 13.4 °C 5.6 °C 1011.1 hPa NW 3.7 km/h 3.7 km/h 59 % 0 mm
14:21 13.3 °C 5.4 °C 1011.1 hPa WSW 3.7 km/h 3.7 km/h 59 % 0 mm
14:26 13.2 °C 5.6 °C 1011.1 hPa NW 1.9 km/h 1.9 km/h 60 % 0 mm
14:31 13.2 °C 5.4 °C 1011.1 hPa NNW 5.6 km/h 5.6 km/h 59 % 0 mm
14:36 13.2 °C 5.4 °C 1011.1 hPa NNW 1.6 km/h 1.6 km/h 59 % 0 mm
14:41 13.2 °C 5.4 °C 1011.1 hPa NW 5.6 km/h 5.6 km/h 59 % 0 mm
14:46 13.2 °C 5.3 °C 1011.1 hPa WNW 3.7 km/h 3.7 km/h 59 % 0 mm
14:51 13.1 °C 5.3 °C 1011.1 hPa NW 1.9 km/h 1.9 km/h 59 % 0 mm
14:56 13.1 °C 5 °C 1011.1 hPa NNW 3.7 km/h 3.7 km/h 58 % 0 mm
15:01 13.1 °C 5 °C 1011.1 hPa NNW 3.2 km/h 3.2 km/h 58 % 0 mm
15:06 13.1 °C 5 °C 1011.1 hPa NW 3.7 km/h 3.7 km/h 58 % 0 mm
15:11 13.2 °C 5.1 °C 1011.1 hPa WNW 3.7 km/h 3.7 km/h 58 % 0 mm
15:16 13.3 °C 5.2 °C 1011.1 hPa NW 5.6 km/h 5.6 km/h 58 % 0 mm
15:21 13.3 °C 5.2 °C 1011.1 hPa NNW 5.6 km/h 5.6 km/h 58 % 0 mm
15:26 13.3 °C 5.2 °C 1011.1 hPa NW 3.7 km/h 3.7 km/h 58 % 0 mm
15:31 13.2 °C 4.9 °C 1011.1 hPa NW 3.7 km/h 3.7 km/h 57 % 0 mm
15:36 13.3 °C 5.7 °C 1011.1 hPa NW 5.6 km/h 5.6 km/h 60 % 0 mm
15:41 13.2 °C 5.6 °C 1011.1 hPa NW 6.4 km/h 6.4 km/h 60 % 0 mm
15:46 13 °C 5.4 °C 1011.1 hPa NW 1.9 km/h 1.9 km/h 60 % 0 mm
15:51 13 °C 5.4 °C 1011.1 hPa Calm     60 % 0 mm
15:56 12.9 °C 5.3 °C 1011.1 hPa NW 1.9 km/h 1.9 km/h 60 % 0 mm
16:01 12.8 °C 5.3 °C 1011.1 hPa NW 1.9 km/h 1.9 km/h 60 % 0 mm
16:06 12.8 °C 5 °C 1011.1 hPa NW 1.9 km/h 1.9 km/h 59 % 0 mm
16:11 12.8 °C 5 °C 1011.4 hPa NW 3.7 km/h 3.7 km/h 59 % 0 mm
16:16 12.9 °C 5.3 °C 1011.4 hPa NW 1.9 km/h 1.9 km/h 60 % 0 mm
16:21 12.9 °C 4.9 °C 1011.4 hPa NW 5.6 km/h 5.6 km/h 58 % 0 mm
16:26 12.9 °C 5.1 °C 1011.4 hPa NW 6.4 km/h 6.4 km/h 59 % 0 mm
16:31 12.8 °C 5 °C 1011.4 hPa NW 5.6 km/h 5.6 km/h 59 % 0 mm
16:36 12.8 °C 5 °C 1011.4 hPa NW 5.6 km/h 5.6 km/h 59 % 0 mm
16:41 12.8 °C 5.3 °C 1011.4 hPa NW 3.7 km/h 3.7 km/h 60 % 0 mm
16:47 12.8 °C 5.3 °C 1011.4 hPa NW 3.7 km/h   60 % 0 mm
16:52 12.7 °C 5.4 °C 1011.4 hPa WNW 3.7 km/h   61 % 0 mm
16:57 12.7 °C 5.6 °C 1011.4 hPa NNW 1.9 km/h 1.9 km/h 62 % 0 mm
17:02 12.6 °C 5.7 °C 1011.4 hPa WNW 3.7 km/h 3.7 km/h 63 % 0 mm
17:07 12.6 °C 5.4 °C 1011.4 hPa WNW 1.9 km/h 1.9 km/h 62 % 0 mm
17:12 12.5 °C 5.7 °C 1011.4 hPa NW 5.6 km/h 5.6 km/h 63 % 0 mm
17:17 12.3 °C 5.5 °C 1011.7 hPa NNW 5.6 km/h 5.6 km/h 63 % 0 mm
17:22 12.3 °C 5.4 °C 1011.4 hPa NW 3.7 km/h 3.7 km/h 63 % 0 mm
17:27 12.2 °C 5.3 °C 1011.7 hPa NW 1.9 km/h   63 % 0 mm
17:32 12.1 °C 5.5 °C 1011.7 hPa NNW 3.7 km/h 3.7 km/h 64 % 0 mm
17:37 12 °C 5.6 °C 1011.7 hPa NW 3.7 km/h 3.7 km/h 65 % 0 mm
17:42 11.8 °C 5.4 °C 1011.7 hPa NW 1.9 km/h 1.9 km/h 65 % 0 mm
17:47 11.8 °C 5.6 °C 1011.7 hPa Calm     66 % 0 mm
17:52 11.7 °C 5.7 °C 1011.7 hPa Calm     67 % 0 mm
17:57 11.6 °C 5.6 °C 1011.7 hPa Calm     67 % 0 mm
18:02 11.6 °C 5.8 °C 1011.7 hPa Calm     68 % 0 mm
18:07 11.4 °C 5.7 °C 1012.1 hPa Calm     68 % 0 mm
18:12 11.4 °C 5.7 °C 1012.1 hPa Calm     68 % 0 mm
18:17 11.4 °C 5.7 °C 1012.1 hPa Calm     68 % 0 mm
18:22 11.3 °C 5.6 °C 1012.1 hPa Calm     68 % 0 mm
18:27 11.3 °C 5.4 °C 1012.1 hPa Calm     67 % 0 mm
18:32 11.2 °C 5.6 °C 1012.1 hPa Calm     68 % 0 mm
18:37 11.2 °C 5.5 °C 1012.4 hPa Calm     68 % 0 mm
18:42 11.1 °C 5.4 °C 1012.4 hPa Calm     68 % 0 mm
18:47 11 °C 5.3 °C 1012.4 hPa Calm     68 % 0 mm
18:52 10.9 °C 5.2 °C 1012.4 hPa Calm     68 % 0 mm
18:57 10.8 °C 5.3 °C 1012.4 hPa Calm     69 % 0 mm
19:02 10.6 °C 5.6 °C 1012.4 hPa Calm     71 % 0 mm
19:07 10.3 °C 5.7 °C 1012.8 hPa Calm     73 % 0 mm
19:12 10 °C 5.6 °C 1012.8 hPa Calm     74 % 0 mm
19:17 9.8 °C 5.6 °C 1012.8 hPa Calm     75 % 0 mm
19:22 9.7 °C 5.4 °C 1012.8 hPa Calm     75 % 0 mm
19:27 9.6 °C 5.3 °C 1012.8 hPa Calm     75 % 0 mm
19:32 9.6 °C 5.4 °C 1012.8 hPa Calm     75 % 0 mm
19:37 9.7 °C 5.4 °C 1012.8 hPa Calm     75 % 0 mm
19:42 9.7 °C 5.5 °C 1012.8 hPa Calm     75 % 0 mm
19:47 9.7 °C 5.3 °C 1012.8 hPa Calm     74 % 0 mm
19:52 9.6 °C 5.4 °C 1013.1 hPa Calm     75 % 0 mm
19:57 9.4 °C 5.2 °C 1013.1 hPa Calm     75 % 0 mm
20:02 9.2 °C 5.4 °C 1013.1 hPa Calm     77 % 0 mm
20:07 9.2 °C 5.2 °C 1013.1 hPa Calm     76 % 0 mm
20:12 9.3 °C 5.3 °C 1013.1 hPa Calm     76 % 0 mm
20:17 9.3 °C 5.3 °C 1013.1 hPa Calm     76 % 0 mm
20:22 9.3 °C 5.3 °C 1013.4 hPa Calm     76 % 0 mm
20:27 9.2 °C 5.2 °C 1013.4 hPa Calm     76 % 0 mm
20:33 9.1 °C 5.3 °C 1013.4 hPa Calm     77 % 0 mm
20:38 9 °C 5.2 °C 1013.4 hPa Calm     77 % 0 mm
20:43 8.8 °C 5 °C 1013.4 hPa Calm     77 % 0 mm
20:48 8.7 °C 5.1 °C 1013.8 hPa Calm     78 % 0 mm
20:53 8.6 °C 4.9 °C 1013.8 hPa Calm     78 % 0 mm
20:58 8.5 °C 5.1 °C 1013.8 hPa Calm     79 % 0 mm
21:03 8.4 °C 5 °C 1013.8 hPa Calm     79 % 0 mm
21:08 8.3 °C 4.8 °C 1013.8 hPa Calm     79 % 0 mm
21:13 7.9 °C 4.9 °C 1014.1 hPa Calm     81 % 0 mm
21:18 7.9 °C 4.8 °C 1014.1 hPa Calm     81 % 0 mm
21:23 7.9 °C 4.9 °C 1014.1 hPa Calm     81 % 0 mm
21:28 8.2 °C 4.9 °C 1014.1 hPa Calm     80 % 0 mm
21:33 8.3 °C 5.1 °C 1014.1 hPa Calm     80 % 0 mm
21:38 8.4 °C 4.9 °C 1014.1 hPa Calm     79 % 0 mm
21:43 8.3 °C 4.9 °C 1014.1 hPa Calm     79 % 0 mm
21:48 8.3 °C 4.9 °C 1014.4 hPa NW 1.6 km/h   79 % 0 mm
21:53 8.2 °C 4.8 °C 1014.4 hPa Calm     79 % 0 mm
21:58 8.1 °C 4.9 °C 1014.4 hPa Calm     80 % 0 mm
22:03 8.1 °C 4.8 °C 1014.4 hPa Calm     80 % 0 mm
22:08 8 °C 4.8 °C 1014.4 hPa Calm     80 % 0 mm
22:13 8 °C 4.8 °C 1014.4 hPa Calm     80 % 0 mm
22:18 8 °C 4.6 °C 1014.8 hPa Calm     79 % 0 mm
22:23 7.9 °C 4.7 °C 1014.8 hPa Calm     80 % 0 mm
22:28 7.8 °C 4.6 °C 1014.8 hPa Calm     80 % 0 mm
22:33 7.7 °C 4.4 °C 1014.8 hPa Calm     80 % 0 mm
22:38 7.3 °C 4.3 °C 1014.8 hPa Calm     81 % 0 mm
22:43 7.1 °C 4.2 °C 1014.8 hPa Calm     82 % 0 mm
22:48 6.8 °C 4 °C 1014.8 hPa Calm     82 % 0 mm
22:53 6.7 °C 4.1 °C 1015.1 hPa Calm     83 % 0 mm
22:58 6.6 °C 3.9 °C 1015.1 hPa Calm     83 % 0 mm
23:03 6.4 °C 3.7 °C 1015.1 hPa Calm     83 % 0 mm
23:08 6.1 °C 3.6 °C 1015.1 hPa Calm     84 % 0 mm
23:13 5.8 °C 3.3 °C 1015.1 hPa NNE 1.9 km/h   84 % 0 mm
23:18 5.6 °C 3.3 °C 1015.5 hPa Calm     85 % 0 mm
23:23 5.5 °C 3.3 °C 1015.5 hPa Calm     86 % 0 mm
23:28 5.4 °C 3.2 °C 1015.1 hPa Calm     86 % 0 mm
23:33 5.2 °C 3.1 °C 1015.5 hPa Calm     86 % 0 mm
23:38 5.1 °C 3.1 °C 1015.5 hPa Calm     87 % 0 mm
23:43 4.9 °C 2.9 °C 1015.5 hPa Calm     87 % 0 mm
23:48 4.8 °C 2.8 °C 1015.5 hPa Calm     87 % 0 mm
23:53 4.7 °C 2.8 °C 1015.5 hPa Calm     88 % 0 mm
23:58 4.6 °C 2.7 °C 1015.8 hPa Calm     88 % 0 mm
Park Place, Exeter, Tulare County, California, USA
Compliments of Weather Underground - 2.75 mb